sensor_id;sensor_type;location;lat;lon;timestamp;P1;durP1;ratioP1;P2;durP2;ratioP2
20154;SDS011;10238;49.556;10.956;2022-11-15T00:00:27;7.15;;;4.63;;
20154;SDS011;10238;49.556;10.956;2022-11-15T00:03:15;6.88;;;4.47;;
20154;SDS011;10238;49.556;10.956;2022-11-15T00:06:03;6.00;;;4.72;;
20154;SDS011;10238;49.556;10.956;2022-11-15T00:08:57;14.60;;;6.55;;
20154;SDS011;10238;49.556;10.956;2022-11-15T00:19:37;8.02;;;5.22;;
20154;SDS011;10238;49.556;10.956;2022-11-15T00:22:24;7.50;;;5.20;;
20154;SDS011;10238;49.556;10.956;2022-11-15T00:25:20;8.07;;;5.40;;
20154;SDS011;10238;49.556;10.956;2022-11-15T00:28:07;8.15;;;5.03;;
20154;SDS011;10238;49.556;10.956;2022-11-15T00:30:59;6.75;;;4.50;;
20154;SDS011;10238;49.556;10.956;2022-11-15T00:33:48;8.07;;;5.40;;
20154;SDS011;10238;49.556;10.956;2022-11-15T00:36:45;8.10;;;4.70;;
20154;SDS011;10238;49.556;10.956;2022-11-15T00:39:32;7.10;;;5.25;;
20154;SDS011;10238;49.556;10.956;2022-11-15T00:42:21;7.95;;;5.07;;
20154;SDS011;10238;49.556;10.956;2022-11-15T00:45:09;6.43;;;4.63;;
20154;SDS011;10238;49.556;10.956;2022-11-15T00:47:57;7.32;;;4.55;;
20154;SDS011;10238;49.556;10.956;2022-11-15T00:50:44;8.32;;;4.93;;
20154;SDS011;10238;49.556;10.956;2022-11-15T00:53:31;10.00;;;5.40;;
20154;SDS011;10238;49.556;10.956;2022-11-15T00:56:19;7.80;;;5.07;;
20154;SDS011;10238;49.556;10.956;2022-11-15T00:59:08;6.95;;;5.00;;
20154;SDS011;10238;49.556;10.956;2022-11-15T01:01:55;5.88;;;4.82;;
20154;SDS011;10238;49.556;10.956;2022-11-15T01:04:43;6.05;;;4.57;;
20154;SDS011;10238;49.556;10.956;2022-11-15T01:07:31;7.15;;;4.97;;
20154;SDS011;10238;49.556;10.956;2022-11-15T01:10:18;5.85;;;4.25;;
20154;SDS011;10238;49.556;10.956;2022-11-15T01:13:06;6.82;;;4.90;;
20154;SDS011;10238;49.556;10.956;2022-11-15T01:15:55;6.05;;;4.82;;
20154;SDS011;10238;49.556;10.956;2022-11-15T01:18:46;6.72;;;4.70;;
20154;SDS011;10238;49.556;10.956;2022-11-15T01:21:33;6.85;;;4.68;;
20154;SDS011;10238;49.556;10.956;2022-11-15T01:24:21;7.22;;;4.60;;
20154;SDS011;10238;49.556;10.956;2022-11-15T01:27:08;8.10;;;5.20;;
20154;SDS011;10238;49.556;10.956;2022-11-15T01:29:56;5.63;;;4.75;;
20154;SDS011;10238;49.556;10.956;2022-11-15T01:32:45;6.05;;;4.43;;
20154;SDS011;10238;49.556;10.956;2022-11-15T01:35:33;7.97;;;5.80;;
20154;SDS011;10238;49.556;10.956;2022-11-15T01:38:25;5.65;;;4.53;;
20154;SDS011;10238;49.556;10.956;2022-11-15T01:41:16;7.63;;;4.85;;
20154;SDS011;10238;49.556;10.956;2022-11-15T01:47:28;5.80;;;4.20;;
20154;SDS011;10238;49.556;10.956;2022-11-15T01:50:21;8.27;;;5.47;;
20154;SDS011;10238;49.556;10.956;2022-11-15T01:53:15;8.05;;;4.82;;
20154;SDS011;10238;49.556;10.956;2022-11-15T01:56:04;5.80;;;4.43;;
20154;SDS011;10238;49.556;10.956;2022-11-15T01:58:56;8.30;;;4.95;;
20154;SDS011;10238;49.556;10.956;2022-11-15T02:01:48;6.53;;;4.70;;
20154;SDS011;10238;49.556;10.956;2022-11-15T02:04:38;7.15;;;4.60;;
20154;SDS011;10238;49.556;10.956;2022-11-15T02:07:30;7.47;;;5.13;;
20154;SDS011;10238;49.556;10.956;2022-11-15T02:10:21;7.72;;;5.15;;
20154;SDS011;10238;49.556;10.956;2022-11-15T02:13:11;6.80;;;4.85;;
20154;SDS011;10238;49.556;10.956;2022-11-15T02:16:02;6.22;;;4.60;;
20154;SDS011;10238;49.556;10.956;2022-11-15T02:18:59;5.03;;;4.00;;
20154;SDS011;10238;49.556;10.956;2022-11-15T02:22:02;7.82;;;4.80;;
20154;SDS011;10238;49.556;10.956;2022-11-15T02:25:17;6.70;;;4.95;;
20154;SDS011;10238;49.556;10.956;2022-11-15T02:28:35;6.55;;;4.53;;
20154;SDS011;10238;49.556;10.956;2022-11-15T02:31:39;5.78;;;4.60;;
20154;SDS011;10238;49.556;10.956;2022-11-15T02:34:35;6.22;;;4.82;;
20154;SDS011;10238;49.556;10.956;2022-11-15T02:37:39;5.50;;;4.72;;
20154;SDS011;10238;49.556;10.956;2022-11-15T02:40:51;5.65;;;4.50;;
20154;SDS011;10238;49.556;10.956;2022-11-15T02:43:47;6.57;;;4.68;;
20154;SDS011;10238;49.556;10.956;2022-11-15T02:46:43;6.47;;;4.72;;
20154;SDS011;10238;49.556;10.956;2022-11-15T02:49:54;6.93;;;4.50;;
20154;SDS011;10238;49.556;10.956;2022-11-15T02:52:59;7.85;;;4.80;;
20154;SDS011;10238;49.556;10.956;2022-11-15T02:55:46;5.63;;;4.45;;
20154;SDS011;10238;49.556;10.956;2022-11-15T02:58:42;5.32;;;4.05;;
20154;SDS011;10238;49.556;10.956;2022-11-15T03:01:58;6.80;;;4.35;;
20154;SDS011;10238;49.556;10.956;2022-11-15T03:05:10;5.47;;;4.20;;
20154;SDS011;10238;49.556;10.956;2022-11-15T03:08:12;8.73;;;4.50;;
20154;SDS011;10238;49.556;10.956;2022-11-15T03:11:13;5.93;;;4.50;;
20154;SDS011;10238;49.556;10.956;2022-11-15T03:14:07;5.63;;;4.10;;
20154;SDS011;10238;49.556;10.956;2022-11-15T03:17:10;7.65;;;4.68;;
20154;SDS011;10238;49.556;10.956;2022-11-15T03:20:06;6.07;;;4.45;;
20154;SDS011;10238;49.556;10.956;2022-11-15T03:25:50;5.97;;;4.68;;
20154;SDS011;10238;49.556;10.956;2022-11-15T03:28:42;5.50;;;4.28;;
20154;SDS011;10238;49.556;10.956;2022-11-15T03:31:37;7.05;;;4.32;;
20154;SDS011;10238;49.556;10.956;2022-11-15T03:34:38;6.60;;;4.32;;
20154;SDS011;10238;49.556;10.956;2022-11-15T03:37:33;6.25;;;4.20;;
20154;SDS011;10238;49.556;10.956;2022-11-15T03:40:28;8.13;;;5.13;;
20154;SDS011;10238;49.556;10.956;2022-11-15T03:43:25;6.57;;;4.80;;
20154;SDS011;10238;49.556;10.956;2022-11-15T03:46:23;7.85;;;4.40;;
20154;SDS011;10238;49.556;10.956;2022-11-15T03:49:19;5.95;;;4.45;;
20154;SDS011;10238;49.556;10.956;2022-11-15T03:52:18;6.32;;;4.70;;
20154;SDS011;10238;49.556;10.956;2022-11-15T03:55:10;7.07;;;4.65;;
20154;SDS011;10238;49.556;10.956;2022-11-15T03:58:01;6.80;;;4.68;;
20154;SDS011;10238;49.556;10.956;2022-11-15T04:00:49;6.57;;;4.40;;
20154;SDS011;10238;49.556;10.956;2022-11-15T04:03:36;6.10;;;4.18;;
20154;SDS011;10238;49.556;10.956;2022-11-15T04:06:24;6.18;;;4.18;;
20154;SDS011;10238;49.556;10.956;2022-11-15T04:09:12;6.82;;;4.47;;
20154;SDS011;10238;49.556;10.956;2022-11-15T04:12:00;8.73;;;5.47;;
20154;SDS011;10238;49.556;10.956;2022-11-15T04:14:48;5.47;;;4.38;;
20154;SDS011;10238;49.556;10.956;2022-11-15T04:17:53;7.55;;;4.72;;
20154;SDS011;10238;49.556;10.956;2022-11-15T04:20:43;5.85;;;4.30;;
20154;SDS011;10238;49.556;10.956;2022-11-15T04:23:48;6.28;;;4.60;;
20154;SDS011;10238;49.556;10.956;2022-11-15T04:26:54;8.23;;;4.60;;
20154;SDS011;10238;49.556;10.956;2022-11-15T04:29:41;8.15;;;4.63;;
20154;SDS011;10238;49.556;10.956;2022-11-15T04:32:29;7.22;;;5.35;;
20154;SDS011;10238;49.556;10.956;2022-11-15T04:35:16;5.55;;;4.32;;
20154;SDS011;10238;49.556;10.956;2022-11-15T04:38:04;6.65;;;4.63;;
20154;SDS011;10238;49.556;10.956;2022-11-15T04:40:54;6.97;;;4.70;;
20154;SDS011;10238;49.556;10.956;2022-11-15T04:43:44;9.32;;;4.82;;
20154;SDS011;10238;49.556;10.956;2022-11-15T04:46:31;8.48;;;5.78;;
20154;SDS011;10238;49.556;10.956;2022-11-15T04:49:19;5.80;;;4.20;;
20154;SDS011;10238;49.556;10.956;2022-11-15T04:52:07;7.03;;;4.63;;
20154;SDS011;10238;49.556;10.956;2022-11-15T04:54:54;5.40;;;4.40;;
20154;SDS011;10238;49.556;10.956;2022-11-15T04:57:42;9.00;;;4.70;;
20154;SDS011;10238;49.556;10.956;2022-11-15T05:00:30;6.15;;;4.50;;
20154;SDS011;10238;49.556;10.956;2022-11-15T05:03:18;8.23;;;5.03;;
20154;SDS011;10238;49.556;10.956;2022-11-15T05:06:23;7.15;;;4.68;;
20154;SDS011;10238;49.556;10.956;2022-11-15T05:09:10;5.57;;;4.40;;
20154;SDS011;10238;49.556;10.956;2022-11-15T05:11:59;6.82;;;4.85;;
20154;SDS011;10238;49.556;10.956;2022-11-15T05:14:47;8.00;;;5.40;;
20154;SDS011;10238;49.556;10.956;2022-11-15T05:17:35;7.32;;;4.68;;
20154;SDS011;10238;49.556;10.956;2022-11-15T05:20:23;7.57;;;5.32;;
20154;SDS011;10238;49.556;10.956;2022-11-15T05:23:10;8.38;;;4.85;;
20154;SDS011;10238;49.556;10.956;2022-11-15T05:25:58;6.95;;;4.80;;
20154;SDS011;10238;49.556;10.956;2022-11-15T05:28:53;6.05;;;4.60;;
20154;SDS011;10238;49.556;10.956;2022-11-15T05:31:43;9.63;;;4.95;;
20154;SDS011;10238;49.556;10.956;2022-11-15T05:34:32;6.88;;;4.78;;
20154;SDS011;10238;49.556;10.956;2022-11-15T05:37:19;7.68;;;4.75;;
20154;SDS011;10238;49.556;10.956;2022-11-15T05:40:07;7.35;;;4.88;;
20154;SDS011;10238;49.556;10.956;2022-11-15T05:42:55;6.22;;;4.57;;
20154;SDS011;10238;49.556;10.956;2022-11-15T05:45:46;6.55;;;4.45;;
20154;SDS011;10238;49.556;10.956;2022-11-15T05:48:34;7.15;;;4.95;;
20154;SDS011;10238;49.556;10.956;2022-11-15T05:51:29;7.05;;;4.38;;
20154;SDS011;10238;49.556;10.956;2022-11-15T05:54:16;9.13;;;4.63;;
20154;SDS011;10238;49.556;10.956;2022-11-15T05:57:07;7.57;;;4.88;;
20154;SDS011;10238;49.556;10.956;2022-11-15T05:59:55;7.13;;;4.75;;
20154;SDS011;10238;49.556;10.956;2022-11-15T06:02:43;7.20;;;4.75;;
20154;SDS011;10238;49.556;10.956;2022-11-15T06:05:30;7.70;;;5.00;;
20154;SDS011;10238;49.556;10.956;2022-11-15T06:08:19;7.07;;;4.80;;
20154;SDS011;10238;49.556;10.956;2022-11-15T06:11:07;6.93;;;5.07;;
20154;SDS011;10238;49.556;10.956;2022-11-15T06:13:55;6.60;;;5.05;;
20154;SDS011;10238;49.556;10.956;2022-11-15T06:16:43;8.18;;;5.70;;
20154;SDS011;10238;49.556;10.956;2022-11-15T06:19:31;6.03;;;4.22;;
20154;SDS011;10238;49.556;10.956;2022-11-15T06:22:19;6.20;;;4.50;;
20154;SDS011;10238;49.556;10.956;2022-11-15T06:25:09;8.23;;;5.28;;
20154;SDS011;10238;49.556;10.956;2022-11-15T06:27:57;8.98;;;5.20;;
20154;SDS011;10238;49.556;10.956;2022-11-15T06:30:46;5.25;;;4.28;;
20154;SDS011;10238;49.556;10.956;2022-11-15T06:33:38;8.05;;;4.88;;
20154;SDS011;10238;49.556;10.956;2022-11-15T06:36:25;5.88;;;4.65;;
20154;SDS011;10238;49.556;10.956;2022-11-15T06:39:13;9.68;;;5.45;;
20154;SDS011;10238;49.556;10.956;2022-11-15T06:42:02;6.70;;;4.57;;
20154;SDS011;10238;49.556;10.956;2022-11-15T06:44:49;8.27;;;5.20;;
20154;SDS011;10238;49.556;10.956;2022-11-15T06:47:43;6.95;;;4.85;;
20154;SDS011;10238;49.556;10.956;2022-11-15T06:50:32;9.13;;;5.30;;
20154;SDS011;10238;49.556;10.956;2022-11-15T06:53:19;9.50;;;5.97;;
20154;SDS011;10238;49.556;10.956;2022-11-15T06:56:07;6.30;;;4.82;;
20154;SDS011;10238;49.556;10.956;2022-11-15T06:58:57;7.82;;;5.35;;
20154;SDS011;10238;49.556;10.956;2022-11-15T07:01:44;6.10;;;4.95;;
20154;SDS011;10238;49.556;10.956;2022-11-15T07:04:33;7.30;;;4.68;;
20154;SDS011;10238;49.556;10.956;2022-11-15T07:07:21;8.38;;;5.55;;
20154;SDS011;10238;49.556;10.956;2022-11-15T07:10:09;8.27;;;5.22;;
20154;SDS011;10238;49.556;10.956;2022-11-15T07:12:57;6.28;;;4.80;;
20154;SDS011;10238;49.556;10.956;2022-11-15T07:15:46;9.40;;;5.53;;
20154;SDS011;10238;49.556;10.956;2022-11-15T07:18:34;14.52;;;6.95;;
20154;SDS011;10238;49.556;10.956;2022-11-15T07:21:23;7.85;;;4.80;;
20154;SDS011;10238;49.556;10.956;2022-11-15T07:24:12;8.43;;;5.68;;
20154;SDS011;10238;49.556;10.956;2022-11-15T07:26:59;8.32;;;5.55;;
20154;SDS011;10238;49.556;10.956;2022-11-15T07:29:47;14.07;;;9.05;;
20154;SDS011;10238;49.556;10.956;2022-11-15T07:32:36;9.75;;;6.85;;
20154;SDS011;10238;49.556;10.956;2022-11-15T07:35:24;22.50;;;10.50;;
20154;SDS011;10238;49.556;10.956;2022-11-15T07:38:13;23.38;;;12.70;;
20154;SDS011;10238;49.556;10.956;2022-11-15T07:41:05;24.10;;;13.90;;
20154;SDS011;10238;49.556;10.956;2022-11-15T07:43:53;18.90;;;11.32;;
20154;SDS011;10238;49.556;10.956;2022-11-15T07:46:41;18.90;;;10.73;;
20154;SDS011;10238;49.556;10.956;2022-11-15T07:49:29;13.38;;;9.30;;
20154;SDS011;10238;49.556;10.956;2022-11-15T07:52:17;15.27;;;8.82;;
20154;SDS011;10238;49.556;10.956;2022-11-15T07:55:05;13.25;;;7.45;;
20154;SDS011;10238;49.556;10.956;2022-11-15T07:57:59;15.65;;;8.05;;
20154;SDS011;10238;49.556;10.956;2022-11-15T08:00:48;12.20;;;7.07;;
20154;SDS011;10238;49.556;10.956;2022-11-15T08:03:36;15.23;;;9.85;;
20154;SDS011;10238;49.556;10.956;2022-11-15T08:06:25;12.77;;;8.02;;
20154;SDS011;10238;49.556;10.956;2022-11-15T08:09:13;12.25;;;8.40;;
20154;SDS011;10238;49.556;10.956;2022-11-15T08:12:00;15.93;;;8.18;;
20154;SDS011;10238;49.556;10.956;2022-11-15T08:14:48;15.50;;;8.55;;
20154;SDS011;10238;49.556;10.956;2022-11-15T08:17:35;15.45;;;9.02;;
20154;SDS011;10238;49.556;10.956;2022-11-15T08:20:23;14.75;;;8.82;;
20154;SDS011;10238;49.556;10.956;2022-11-15T08:23:16;14.98;;;8.52;;
20154;SDS011;10238;49.556;10.956;2022-11-15T08:26:04;15.25;;;8.55;;
20154;SDS011;10238;49.556;10.956;2022-11-15T08:28:52;14.70;;;9.07;;
20154;SDS011;10238;49.556;10.956;2022-11-15T08:31:39;16.63;;;9.40;;
20154;SDS011;10238;49.556;10.956;2022-11-15T08:34:27;15.98;;;9.35;;
20154;SDS011;10238;49.556;10.956;2022-11-15T08:37:14;16.02;;;9.55;;
20154;SDS011;10238;49.556;10.956;2022-11-15T08:40:04;15.27;;;9.43;;
20154;SDS011;10238;49.556;10.956;2022-11-15T08:42:53;17.30;;;9.55;;
20154;SDS011;10238;49.556;10.956;2022-11-15T08:45:40;13.90;;;9.52;;
20154;SDS011;10238;49.556;10.956;2022-11-15T08:48:28;16.52;;;9.65;;
20154;SDS011;10238;49.556;10.956;2022-11-15T08:51:17;15.90;;;9.25;;
20154;SDS011;10238;49.556;10.956;2022-11-15T08:54:05;17.90;;;9.27;;
20154;SDS011;10238;49.556;10.956;2022-11-15T08:56:54;17.05;;;9.20;;
20154;SDS011;10238;49.556;10.956;2022-11-15T08:59:42;13.93;;;9.48;;
20154;SDS011;10238;49.556;10.956;2022-11-15T09:02:30;19.10;;;9.98;;
20154;SDS011;10238;49.556;10.956;2022-11-15T09:05:17;14.98;;;9.07;;
20154;SDS011;10238;49.556;10.956;2022-11-15T09:08:05;17.08;;;10.45;;
20154;SDS011;10238;49.556;10.956;2022-11-15T09:11:12;15.73;;;9.35;;
20154;SDS011;10238;49.556;10.956;2022-11-15T09:14:03;15.23;;;9.23;;
20154;SDS011;10238;49.556;10.956;2022-11-15T09:16:50;15.93;;;9.60;;
20154;SDS011;10238;49.556;10.956;2022-11-15T09:19:38;14.77;;;9.38;;
20154;SDS011;10238;49.556;10.956;2022-11-15T09:22:25;17.15;;;9.32;;
20154;SDS011;10238;49.556;10.956;2022-11-15T09:25:14;14.70;;;8.55;;
20154;SDS011;10238;49.556;10.956;2022-11-15T09:28:04;15.05;;;9.70;;
20154;SDS011;10238;49.556;10.956;2022-11-15T09:30:56;11.63;;;8.38;;
20154;SDS011;10238;49.556;10.956;2022-11-15T09:33:45;11.80;;;8.33;;
20154;SDS011;10238;49.556;10.956;2022-11-15T09:36:33;13.00;;;8.10;;
20154;SDS011;10238;49.556;10.956;2022-11-15T09:39:21;13.52;;;8.75;;
20154;SDS011;10238;49.556;10.956;2022-11-15T09:42:22;16.15;;;8.60;;
20154;SDS011;10238;49.556;10.956;2022-11-15T09:45:34;26.02;;;10.35;;
20154;SDS011;10238;49.556;10.956;2022-11-15T09:48:42;14.30;;;8.48;;
20154;SDS011;10238;49.556;10.956;2022-11-15T09:51:39;14.27;;;8.43;;
20154;SDS011;10238;49.556;10.956;2022-11-15T09:54:34;17.08;;;8.60;;
20154;SDS011;10238;49.556;10.956;2022-11-15T09:57:41;13.40;;;8.38;;
20154;SDS011;10238;49.556;10.956;2022-11-15T10:00:41;12.52;;;8.45;;
20154;SDS011;10238;49.556;10.956;2022-11-15T10:03:38;11.25;;;7.32;;
20154;SDS011;10238;49.556;10.956;2022-11-15T10:06:31;13.48;;;7.75;;
20154;SDS011;10238;49.556;10.956;2022-11-15T10:09:24;11.77;;;7.68;;
20154;SDS011;10238;49.556;10.956;2022-11-15T10:12:19;11.98;;;7.40;;
20154;SDS011;10238;49.556;10.956;2022-11-15T10:15:10;12.45;;;7.10;;
20154;SDS011;10238;49.556;10.956;2022-11-15T10:18:06;9.23;;;6.75;;
20154;SDS011;10238;49.556;10.956;2022-11-15T10:21:09;11.15;;;6.88;;
20154;SDS011;10238;49.556;10.956;2022-11-15T10:24:09;9.20;;;6.78;;
20154;SDS011;10238;49.556;10.956;2022-11-15T10:29:48;10.65;;;6.97;;
20154;SDS011;10238;49.556;10.956;2022-11-15T10:32:37;9.70;;;6.70;;
20154;SDS011;10238;49.556;10.956;2022-11-15T10:35:28;9.15;;;5.97;;
20154;SDS011;10238;49.556;10.956;2022-11-15T10:38:18;9.05;;;6.47;;
20154;SDS011;10238;49.556;10.956;2022-11-15T10:41:06;10.00;;;6.30;;
20154;SDS011;10238;49.556;10.956;2022-11-15T10:44:02;10.32;;;7.03;;
20154;SDS011;10238;49.556;10.956;2022-11-15T10:50:28;8.00;;;5.72;;
20154;SDS011;10238;49.556;10.956;2022-11-15T10:53:21;9.30;;;6.18;;
20154;SDS011;10238;49.556;10.956;2022-11-15T10:56:24;8.30;;;5.90;;
20154;SDS011;10238;49.556;10.956;2022-11-15T10:59:14;7.15;;;5.90;;
20154;SDS011;10238;49.556;10.956;2022-11-15T11:05:44;8.80;;;7.90;;
20154;SDS011;10238;49.556;10.956;2022-11-15T11:08:33;8.07;;;5.80;;
20154;SDS011;10238;49.556;10.956;2022-11-15T11:11:21;8.02;;;6.43;;
20154;SDS011;10238;49.556;10.956;2022-11-15T11:14:11;8.45;;;6.93;;
20154;SDS011;10238;49.556;10.956;2022-11-15T11:17:02;10.95;;;7.03;;
20154;SDS011;10238;49.556;10.956;2022-11-15T11:20:00;7.65;;;6.50;;
20154;SDS011;10238;49.556;10.956;2022-11-15T11:23:00;6.47;;;4.97;;
20154;SDS011;10238;49.556;10.956;2022-11-15T11:26:09;9.95;;;6.25;;
20154;SDS011;10238;49.556;10.956;2022-11-15T11:29:17;8.85;;;5.78;;
20154;SDS011;10238;49.556;10.956;2022-11-15T11:32:24;6.68;;;5.70;;
20154;SDS011;10238;49.556;10.956;2022-11-15T11:35:43;6.35;;;5.18;;
20154;SDS011;10238;49.556;10.956;2022-11-15T11:38:53;6.90;;;5.75;;
20154;SDS011;10238;49.556;10.956;2022-11-15T11:41:59;8.27;;;6.30;;
20154;SDS011;10238;49.556;10.956;2022-11-15T11:44:58;9.05;;;6.35;;
20154;SDS011;10238;49.556;10.956;2022-11-15T11:48:08;6.45;;;5.85;;
20154;SDS011;10238;49.556;10.956;2022-11-15T11:51:01;6.97;;;6.32;;
20154;SDS011;10238;49.556;10.956;2022-11-15T11:54:00;5.90;;;5.00;;
20154;SDS011;10238;49.556;10.956;2022-11-15T11:56:59;7.07;;;5.88;;
20154;SDS011;10238;49.556;10.956;2022-11-15T11:59:53;5.50;;;4.97;;
20154;SDS011;10238;49.556;10.956;2022-11-15T12:02:52;6.38;;;5.57;;
20154;SDS011;10238;49.556;10.956;2022-11-15T12:05:56;7.90;;;7.20;;
20154;SDS011;10238;49.556;10.956;2022-11-15T12:08:52;6.80;;;6.22;;
20154;SDS011;10238;49.556;10.956;2022-11-15T12:11:51;5.45;;;4.95;;
20154;SDS011;10238;49.556;10.956;2022-11-15T12:14:48;6.13;;;5.60;;
20154;SDS011;10238;49.556;10.956;2022-11-15T12:17:42;5.82;;;5.30;;
20154;SDS011;10238;49.556;10.956;2022-11-15T12:20:33;6.00;;;5.45;;
20154;SDS011;10238;49.556;10.956;2022-11-15T12:23:26;6.47;;;5.88;;
20154;SDS011;10238;49.556;10.956;2022-11-15T12:26:18;6.07;;;5.68;;
20154;SDS011;10238;49.556;10.956;2022-11-15T12:29:11;6.70;;;5.75;;
20154;SDS011;10238;49.556;10.956;2022-11-15T12:32:04;5.75;;;5.28;;
20154;SDS011;10238;49.556;10.956;2022-11-15T12:35:03;5.63;;;5.13;;
20154;SDS011;10238;49.556;10.956;2022-11-15T12:38:08;5.72;;;5.32;;
20154;SDS011;10238;49.556;10.956;2022-11-15T12:44:03;5.95;;;5.55;;
20154;SDS011;10238;49.556;10.956;2022-11-15T12:47:08;7.82;;;7.13;;
20154;SDS011;10238;49.556;10.956;2022-11-15T12:50:11;6.72;;;6.32;;
20154;SDS011;10238;49.556;10.956;2022-11-15T12:56:20;4.63;;;3.75;;
20154;SDS011;10238;49.556;10.956;2022-11-15T13:01:58;3.92;;;3.60;;
20154;SDS011;10238;49.556;10.956;2022-11-15T13:04:48;5.18;;;4.75;;
20154;SDS011;10238;49.556;10.956;2022-11-15T13:10:43;6.03;;;5.63;;
20154;SDS011;10238;49.556;10.956;2022-11-15T13:13:41;5.57;;;5.18;;
20154;SDS011;10238;49.556;10.956;2022-11-15T13:16:30;6.13;;;5.72;;
20154;SDS011;10238;49.556;10.956;2022-11-15T13:19:18;5.35;;;5.05;;
20154;SDS011;10238;49.556;10.956;2022-11-15T13:22:11;6.45;;;5.88;;
20154;SDS011;10238;49.556;10.956;2022-11-15T13:25:18;5.00;;;4.53;;
20154;SDS011;10238;49.556;10.956;2022-11-15T13:28:18;5.88;;;3.88;;
20154;SDS011;10238;49.556;10.956;2022-11-15T13:31:25;4.78;;;4.38;;
20154;SDS011;10238;49.556;10.956;2022-11-15T13:34:20;5.97;;;5.45;;
20154;SDS011;10238;49.556;10.956;2022-11-15T13:37:34;4.68;;;4.28;;
20154;SDS011;10238;49.556;10.956;2022-11-15T13:40:24;4.47;;;3.58;;
20154;SDS011;10238;49.556;10.956;2022-11-15T13:43:19;8.13;;;7.43;;
20154;SDS011;10238;49.556;10.956;2022-11-15T13:46:16;3.90;;;3.60;;
20154;SDS011;10238;49.556;10.956;2022-11-15T13:49:07;4.63;;;4.22;;
20154;SDS011;10238;49.556;10.956;2022-11-15T13:51:57;6.90;;;5.13;;
20154;SDS011;10238;49.556;10.956;2022-11-15T13:54:50;4.80;;;4.40;;
20154;SDS011;10238;49.556;10.956;2022-11-15T13:57:44;4.63;;;4.22;;
20154;SDS011;10238;49.556;10.956;2022-11-15T14:00:35;5.47;;;4.97;;
20154;SDS011;10238;49.556;10.956;2022-11-15T14:03:25;4.07;;;3.67;;
20154;SDS011;10238;49.556;10.956;2022-11-15T14:06:16;5.75;;;4.82;;
20154;SDS011;10238;49.556;10.956;2022-11-15T14:12:25;4.78;;;4.32;;
20154;SDS011;10238;49.556;10.956;2022-11-15T14:15:23;6.13;;;5.32;;
20154;SDS011;10238;49.556;10.956;2022-11-15T14:21:28;5.97;;;4.93;;
20154;SDS011;10238;49.556;10.956;2022-11-15T14:24:16;5.65;;;5.15;;
20154;SDS011;10238;49.556;10.956;2022-11-15T14:27:25;4.47;;;4.05;;
20154;SDS011;10238;49.556;10.956;2022-11-15T14:30:15;6.35;;;5.47;;
20154;SDS011;10238;49.556;10.956;2022-11-15T14:33:11;4.95;;;4.43;;
20154;SDS011;10238;49.556;10.956;2022-11-15T14:36:11;4.90;;;4.35;;
20154;SDS011;10238;49.556;10.956;2022-11-15T14:39:00;4.70;;;4.22;;
20154;SDS011;10238;49.556;10.956;2022-11-15T14:41:50;4.80;;;4.10;;
20154;SDS011;10238;49.556;10.956;2022-11-15T14:44:40;4.40;;;4.00;;
20154;SDS011;10238;49.556;10.956;2022-11-15T14:47:30;5.63;;;5.22;;
20154;SDS011;10238;49.556;10.956;2022-11-15T14:50:19;5.40;;;4.93;;
20154;SDS011;10238;49.556;10.956;2022-11-15T14:53:10;5.43;;;5.00;;
20154;SDS011;10238;49.556;10.956;2022-11-15T14:55:59;5.70;;;5.18;;
20154;SDS011;10238;49.556;10.956;2022-11-15T14:58:47;5.32;;;4.93;;
20154;SDS011;10238;49.556;10.956;2022-11-15T15:01:37;4.35;;;3.97;;
20154;SDS011;10238;49.556;10.956;2022-11-15T15:04:25;4.35;;;4.00;;
20154;SDS011;10238;49.556;10.956;2022-11-15T15:07:13;4.18;;;3.85;;
20154;SDS011;10238;49.556;10.956;2022-11-15T15:10:01;5.03;;;3.72;;
20154;SDS011;10238;49.556;10.956;2022-11-15T15:13:12;4.40;;;3.53;;
20154;SDS011;10238;49.556;10.956;2022-11-15T15:16:04;5.60;;;4.13;;
20154;SDS011;10238;49.556;10.956;2022-11-15T15:18:53;4.70;;;4.30;;
20154;SDS011;10238;49.556;10.956;2022-11-15T15:21:41;4.38;;;3.97;;
20154;SDS011;10238;49.556;10.956;2022-11-15T15:24:29;6.22;;;3.53;;
20154;SDS011;10238;49.556;10.956;2022-11-15T15:27:17;5.07;;;3.97;;
20154;SDS011;10238;49.556;10.956;2022-11-15T15:30:05;4.63;;;3.47;;
20154;SDS011;10238;49.556;10.956;2022-11-15T15:32:54;4.72;;;3.63;;
20154;SDS011;10238;49.556;10.956;2022-11-15T15:35:43;4.53;;;4.13;;
20154;SDS011;10238;49.556;10.956;2022-11-15T15:38:31;5.18;;;4.55;;
20154;SDS011;10238;49.556;10.956;2022-11-15T15:41:20;6.03;;;5.43;;
20154;SDS011;10238;49.556;10.956;2022-11-15T15:44:08;8.65;;;7.78;;
20154;SDS011;10238;49.556;10.956;2022-11-15T15:46:56;9.05;;;8.40;;
20154;SDS011;10238;49.556;10.956;2022-11-15T15:49:45;8.00;;;7.22;;
20154;SDS011;10238;49.556;10.956;2022-11-15T15:52:34;7.07;;;4.78;;
20154;SDS011;10238;49.556;10.956;2022-11-15T15:55:22;4.50;;;4.10;;
20154;SDS011;10238;49.556;10.956;2022-11-15T15:58:10;4.30;;;3.90;;
20154;SDS011;10238;49.556;10.956;2022-11-15T16:00:58;5.40;;;4.03;;
20154;SDS011;10238;49.556;10.956;2022-11-15T16:03:47;5.68;;;4.75;;
20154;SDS011;10238;49.556;10.956;2022-11-15T16:06:36;6.03;;;4.63;;
20154;SDS011;10238;49.556;10.956;2022-11-15T16:09:28;6.07;;;4.93;;
20154;SDS011;10238;49.556;10.956;2022-11-15T16:12:34;5.00;;;4.18;;
20154;SDS011;10238;49.556;10.956;2022-11-15T16:15:22;6.18;;;4.35;;
20154;SDS011;10238;49.556;10.956;2022-11-15T16:18:12;6.82;;;4.47;;
20154;SDS011;10238;49.556;10.956;2022-11-15T16:21:05;5.25;;;4.60;;
20154;SDS011;10238;49.556;10.956;2022-11-15T16:23:54;5.20;;;4.70;;
20154;SDS011;10238;49.556;10.956;2022-11-15T16:26:43;5.75;;;5.03;;
20154;SDS011;10238;49.556;10.956;2022-11-15T16:29:31;8.48;;;5.43;;
20154;SDS011;10238;49.556;10.956;2022-11-15T16:32:19;5.88;;;5.28;;
20154;SDS011;10238;49.556;10.956;2022-11-15T16:35:10;7.03;;;6.38;;
20154;SDS011;10238;49.556;10.956;2022-11-15T16:37:59;8.18;;;7.20;;
20154;SDS011;10238;49.556;10.956;2022-11-15T16:40:47;7.25;;;5.82;;
20154;SDS011;10238;49.556;10.956;2022-11-15T16:43:36;6.43;;;4.82;;
20154;SDS011;10238;49.556;10.956;2022-11-15T16:46:24;6.18;;;4.78;;
20154;SDS011;10238;49.556;10.956;2022-11-15T16:49:13;7.38;;;4.90;;
20154;SDS011;10238;49.556;10.956;2022-11-15T16:52:02;5.75;;;4.90;;
20154;SDS011;10238;49.556;10.956;2022-11-15T16:54:50;7.72;;;4.80;;
20154;SDS011;10238;49.556;10.956;2022-11-15T16:57:38;6.22;;;4.60;;
20154;SDS011;10238;49.556;10.956;2022-11-15T17:00:27;6.32;;;4.35;;
20154;SDS011;10238;49.556;10.956;2022-11-15T17:03:16;5.57;;;4.78;;
20154;SDS011;10238;49.556;10.956;2022-11-15T17:06:04;5.70;;;4.60;;
20154;SDS011;10238;49.556;10.956;2022-11-15T17:08:54;5.25;;;4.57;;
20154;SDS011;10238;49.556;10.956;2022-11-15T17:11:41;6.47;;;5.57;;
20154;SDS011;10238;49.556;10.956;2022-11-15T17:14:30;13.00;;;6.85;;
20154;SDS011;10238;49.556;10.956;2022-11-15T17:17:19;8.75;;;5.85;;
20154;SDS011;10238;49.556;10.956;2022-11-15T17:20:08;6.65;;;4.90;;
20154;SDS011;10238;49.556;10.956;2022-11-15T17:23:02;8.70;;;5.82;;
20154;SDS011;10238;49.556;10.956;2022-11-15T17:25:57;7.70;;;5.70;;
20154;SDS011;10238;49.556;10.956;2022-11-15T17:29:05;6.85;;;4.85;;
20154;SDS011;10238;49.556;10.956;2022-11-15T17:31:53;6.10;;;5.43;;
20154;SDS011;10238;49.556;10.956;2022-11-15T17:34:42;6.85;;;5.60;;
20154;SDS011;10238;49.556;10.956;2022-11-15T17:37:30;7.65;;;5.35;;
20154;SDS011;10238;49.556;10.956;2022-11-15T17:40:18;9.38;;;6.85;;